Bookmark and Share
Track history (hours):
 

Alkin Kalkavan

Last reported at 2014-Apr-16 00:04 UTC. Time now 2014-Apr-16 07:40 UTC.
Position N 35°36' E 026°06'.

Length 148 m; draft 7.9 m.

Type: Ship (hazmat cat A). MMSI: 271000905.

NotesDate/timePositionNaut miles runAvg speedWind from/ knotsBaromVisibWave heightAir tempDewpointWater temp
2014-Apr-16 00:04N 35°36' E 026°06'1314.6
2014-Apr-15 23:12N 35°43' E 025°53'1214.3
2014-Apr-15 22:23N 35°49' E 025°41'1214.5
2014-Apr-15 21:33N 35°56' E 025°28'1514.6
2014-Apr-15 20:33N 36°04' E 025°13'1514.7
2014-Apr-15 19:33N 36°12' E 024°58'1514.7
2014-Apr-15 18:33N 36°20' E 024°42'1515.0
2014-Apr-15 17:32N 36°28' E 024°27'1514.2
2014-Apr-15 16:31N 36°37' E 024°13'1414.0
2014-Apr-15 15:31N 36°50' E 024°06'5611.3
2014-Apr-15 10:34N 37°42' E 023°41'1413.9
2014-Apr-15 09:34N 37°55' E 023°36'2 2.0
2014-Apr-15 08:33N 37°57' E 023°36'0 0.0
2014-Apr-15 03:31N 37°57' E 023°36'2 2.0
2014-Apr-15 02:34N 37°56' E 023°37'5 4.5
2014-Apr-15 01:34N 37°51' E 023°39'1312.8
2014-Apr-15 00:34N 37°40' E 023°46'1515.1
2014-Apr-14 23:33N 37°37' E 024°05'9213.2
2014-Apr-14 16:34N 39°09' E 024°09'1615.9
2014-Apr-14 15:33N 39°21' E 023°56'32 1.0
2014-Apr-13 06:19N 39°53' E 023°60'3015.0
2014-Apr-13 04:21N 39°59' E 024°37'1314.7
2014-Apr-13 03:28N 40°02' E 024°54'1614.8
2014-Apr-13 02:22N 40°05' E 025°15'1415.0
2014-Apr-13 01:24N 40°06' E 025°34'186 6.2
2014-Apr-11 19:33N 41°18' E 029°20'0 0.5
2014-Apr-11 18:33N 41°18' E 029°20'5 5.4
2014-Apr-11 17:33N 41°21' E 029°26'27414.8
2014-Apr-10 23:07N 43°31' E 034°52'11615.3
2014-Apr-10 15:33N 44°24' E 037°15'108 3.7
2014-Apr-09 10:10N 44°14' E 034°45'1014.6
2014-Apr-09 09:29N 44°14' E 034°31'1414.7
2014-Apr-09 08:33N 44°15' E 034°12'4613.8
2014-Apr-09 05:13N 44°29' E 033°10'1015.6
2014-Apr-09 04:33N 44°37' E 033°01'6115.3
2014-Apr-09 00:33N 45°22' E 032°02'1615.3
2014-Apr-08 23:32N 45°30' E 031°43'1414.7
2014-Apr-08 22:33N 45°40' E 031°29'1614.9
2014-Apr-08 21:31N 45°53' E 031°17'  
2014-Apr-06 11:27N 37°49' E 025°48'1515.8
2014-Apr-06 10:32N 37°35' E 025°53'1414.7
2014-Apr-06 09:33N 37°22' E 026°03'1515.0
2014-Apr-06 08:33N 37°13' E 026°17'4614.6
2014-Apr-06 05:26N 36°34' E 026°47'1415.6
2014-Apr-06 04:33N 36°22' E 026°56'3315.8
2014-Apr-06 02:28N 35°57' E 027°22'1515.5
2014-Apr-06 01:29N 35°46' E 027°34'  

Dump ship's entire track history

sailing weather and tide predictions

Alkin Kalkavan — TCOL6 — position and weather